Round Hill, VA (20141)

9:51 AM EDT on September 30, 2014 (GMT -0400)
Main Street Near Round Hill Fire Station | Change Station
CLOSE
Current Station
Personal Weather Station
Location: Round Hill, VA
Elevation: 548 ft
Nearby Weather Stations

Elev 548 ft 39.13 °N, 77.77 °W | Updated 1 second ago

Mostly Cloudy
Mostly Cloudy
61.9 °F
Feels Like 61.9 °F
N
0.0
Wind Variable Wind from West
Gusts 0.0 mph

Today
High -- | Low -- °F
--% Chance of Precip.
Yesterday
High -- | Low -- °F
Precip. -- in
7:06 AM 6:55 PM
Waxing Crescent, 37% visible
Pressure 29.95 in
Visibility 10.0 miles
Clouds Overcast 700 ft
Dew Point 60 °F
Humidity 95%
Rainfall 0.00 in
Snow Depth Not available.
UV 1 out of 12
Pollen 3.30 out of 12
Ozone Good
PM2.5 Good
Flu Activity Not available.
METAR KJYO 301335Z AUTO 15003KT 10SM OVC007 18/18 A2995 RMK AO2

More Conditions Fewer Conditions

Pressure 29.95 in
Visibility 10.0 miles
Clouds Overcast 700 ft
Dew Point 60 °F
Humidity 95%
Rainfall 0.00 in
Snow Depth Not available.
UV 1 out of 12
Pollen 3.30 out of 12
Ozone Good
PM2.5 Good
Flu Activity Not available.
METAR KJYO 301335Z AUTO 15003KT 10SM OVC007 18/18 A2995 RMK AO2

More Conditions Fewer Conditions

10-Day Weather Forecast

Almanac

Astronomy

Sep. 30, 2014 Rise Set
Actual Time 7:06 AM EDT 6:55 PM EDT
Civil Twilight 6:39 AM EDT 7:22 PM EDT
Nautical Twilight 6:08 AM EDT 7:52 PM EDT
Astronomical Twilight 5:37 AM EDT 8:24 PM EDT
Moon 1:10 PM EDT 11:25 PM EDT
Length of Visible Light 12h 42m
Length of Day
11h 49m
Tomorrow will be 2m 31s shorter.
Waxing Crescent, 37% of the Moon is Illuminated
Today
Waxing Crescent
Oct 1
First Quarter
Oct 8
Full
Oct 15
Last Quarter
Oct 23
New

Today's Extremes

State Highs State Lows

Community

WunderPhotos

Upload Photos

1,757,636 photos uploaded!

Nearby

Air Quality

  Air Quality AQ Index Pollutant
Yesterday Good
PM10
Yesterday Good
OZONE
Current Good
PM2.5
Current Good
OZONE
Tuesday Moderate
PM2.5
Wednesday Moderate
PM2.5
Thursday Moderate
PM2.5

Snow Depth

Station Depth Elevation
No new snow has been reported.

Earthquake Activity

City Distance Mag. Time & Date
No recent earthquake activity has been reported nearby.
Minimum magnitude displayed is 2.5.

Coastal Water Temperatures

Place Temperature
No Stations Reporting

Nearby Weather Stations